Coribe, Brazil
Current Conditions -  °F | °C
As of 6:00 AM on Wednesday 26 Nov 2014 (Local Time) from SBMK Reporting Station
Broken Clouds Broken Clouds  
Wind Chill: 70°   Ceiling: 7000
Heat Index: 70°   Visibility: 6mi
Dew Point: 68°   Wind: 2mph
Humidity: 94%   Direction: 350°N
Pressure: 29.97"   Gusts: NA
Location:  13.83°S, 44.45°W
Report Text: SBMK 260900Z 35002KT 9999 FEW023 SCT050 BKN070 21/20 Q1015
Loading
Personal Weather Stations






























Interactive Weather Map New forecast layout! Learn more

10-Day Weather Forecast

Advertisements
Track Severe Weather on mobile